createdAt,value
2022-08-26T00:00:50.424Z,21.50
2022-08-26T00:03:19.983Z,21.50
2022-08-26T00:05:50.843Z,21.50
2022-08-26T00:08:21.175Z,21.50
2022-08-26T00:10:51.144Z,21.40
2022-08-26T00:13:19.589Z,21.40
2022-08-26T00:15:47.795Z,21.40
2022-08-26T00:18:21.730Z,21.40
2022-08-26T00:20:51.275Z,21.30
2022-08-26T00:23:19.260Z,21.30
2022-08-26T00:25:48.228Z,21.30
2022-08-26T00:28:18.991Z,21.20
2022-08-26T00:30:51.606Z,21.20
2022-08-26T00:33:21.142Z,21.20
2022-08-26T00:35:49.278Z,21.20
2022-08-26T00:38:22.108Z,21.10
2022-08-26T00:40:55.234Z,21.10
2022-08-26T00:43:26.512Z,21.00
2022-08-26T00:46:02.337Z,21.00
2022-08-26T00:48:33.350Z,21.00
2022-08-26T00:51:04.140Z,21.00
2022-08-26T00:53:37.690Z,20.90
2022-08-26T00:56:15.996Z,20.90
2022-08-26T00:58:47.885Z,20.90
2022-08-26T01:01:17.762Z,20.80
2022-08-26T01:03:47.443Z,20.80
2022-08-26T01:06:16.231Z,20.80
2022-08-26T01:08:45.949Z,20.80
2022-08-26T01:11:14.114Z,20.80
2022-08-26T01:13:42.860Z,20.70
2022-08-26T01:16:16.655Z,20.80
2022-08-26T01:18:46.734Z,20.80
2022-08-26T01:21:22.611Z,20.70
2022-08-26T01:23:57.855Z,20.80
2022-08-26T01:26:30.416Z,20.70
2022-08-26T01:29:02.968Z,20.70
2022-08-26T01:31:37.361Z,20.60
2022-08-26T01:34:12.153Z,20.60
2022-08-26T01:36:41.084Z,20.60
2022-08-26T01:39:11.442Z,20.60
2022-08-26T01:41:43.994Z,20.60
2022-08-26T01:44:24.479Z,20.60
2022-08-26T01:46:54.505Z,20.70
2022-08-26T01:49:31.957Z,20.80
2022-08-26T01:52:06.220Z,20.80
2022-08-26T01:54:34.827Z,20.80
2022-08-26T01:57:05.121Z,20.70
2022-08-26T01:59:33.519Z,20.70
2022-08-26T02:02:01.820Z,20.70
2022-08-26T02:04:34.448Z,20.70
2022-08-26T02:07:05.728Z,20.70
2022-08-26T02:09:33.986Z,20.60
2022-08-26T02:12:11.702Z,20.70
2022-08-26T02:14:43.651Z,20.60
2022-08-26T02:17:12.914Z,20.60
2022-08-26T02:19:46.078Z,20.50
2022-08-26T02:22:18.973Z,20.50
2022-08-26T02:24:49.600Z,20.50
2022-08-26T02:27:19.372Z,20.50
2022-08-26T02:29:52.718Z,20.50
2022-08-26T02:32:20.782Z,20.50
2022-08-26T02:34:50.188Z,20.50
2022-08-26T02:37:18.240Z,20.50
2022-08-26T02:39:48.233Z,20.40
2022-08-26T02:42:16.222Z,20.50
2022-08-26T02:44:44.187Z,20.40
2022-08-26T02:47:14.960Z,20.50
2022-08-26T02:49:44.426Z,20.50
2022-08-26T02:52:16.905Z,20.50
2022-08-26T02:54:45.546Z,20.50
2022-08-26T02:57:13.536Z,20.50
2022-08-26T02:59:41.887Z,20.60
2022-08-26T03:02:11.236Z,20.60
2022-08-26T03:04:40.190Z,20.60
2022-08-26T03:07:08.233Z,20.60
2022-08-26T03:09:38.352Z,20.60
2022-08-26T03:12:08.579Z,20.60
2022-08-26T03:14:36.528Z,20.60
2022-08-26T03:17:04.852Z,20.70
2022-08-26T03:19:34.082Z,20.70
2022-08-26T03:22:03.918Z,20.60
2022-08-26T03:24:32.433Z,20.70
2022-08-26T03:27:01.864Z,20.70
2022-08-26T03:29:51.577Z,20.70
2022-08-26T03:32:21.764Z,20.70
2022-08-26T03:34:49.917Z,20.70
2022-08-26T03:37:17.910Z,20.80
2022-08-26T03:39:46.341Z,20.80
2022-08-26T03:42:15.919Z,20.80
2022-08-26T03:44:44.051Z,20.80
2022-08-26T03:47:12.578Z,20.70
2022-08-26T03:49:41.743Z,20.70
2022-08-26T03:52:10.615Z,20.70
2022-08-26T03:54:38.862Z,20.70
2022-08-26T03:57:06.962Z,20.70
2022-08-26T03:59:36.633Z,20.70
2022-08-26T04:02:08.471Z,20.60
2022-08-26T04:04:40.175Z,20.60
2022-08-26T04:07:08.530Z,20.60
2022-08-26T04:09:37.033Z,20.50
2022-08-26T04:12:06.638Z,20.50
2022-08-26T04:14:37.776Z,20.50
2022-08-26T04:17:07.366Z,20.50
2022-08-26T04:19:35.759Z,20.50
2022-08-26T04:22:03.837Z,20.60
2022-08-26T04:24:32.812Z,20.60
2022-08-26T04:27:03.490Z,20.60
2022-08-26T04:29:31.747Z,20.70
2022-08-26T04:32:02.973Z,20.70
2022-08-26T04:34:32.728Z,20.80
2022-08-26T04:37:01.949Z,20.80
2022-08-26T04:39:30.391Z,20.80
2022-08-26T04:42:00.605Z,20.80
2022-08-26T04:44:31.589Z,20.80
2022-08-26T04:46:59.618Z,20.80
2022-08-26T04:49:29.094Z,20.80
2022-08-26T04:52:04.946Z,20.80
2022-08-26T04:54:32.963Z,20.90
2022-08-26T04:57:01.041Z,21.00
2022-08-26T04:59:29.117Z,21.00
2022-08-26T05:01:59.325Z,21.00
2022-08-26T05:04:28.886Z,21.00
2022-08-26T05:07:02.915Z,21.10
2022-08-26T05:09:31.494Z,21.10
2022-08-26T05:11:59.637Z,21.10
2022-08-26T05:14:27.975Z,21.10
2022-08-26T05:16:55.947Z,21.20
2022-08-26T05:19:24.733Z,21.20
2022-08-26T05:21:57.229Z,21.20
2022-08-26T05:24:25.265Z,21.20
2022-08-26T05:26:53.226Z,21.20
2022-08-26T05:29:21.313Z,21.30
2022-08-26T05:31:51.975Z,21.20
2022-08-26T05:34:20.735Z,21.30
2022-08-26T05:36:49.245Z,21.40
2022-08-26T05:39:18.629Z,21.40
2022-08-26T05:41:46.595Z,21.50
2022-08-26T05:44:18.670Z,21.60
2022-08-26T05:46:47.074Z,21.60
2022-08-26T05:49:16.480Z,21.60
2022-08-26T05:51:46.264Z,21.60
2022-08-26T05:54:21.284Z,21.70
2022-08-26T05:56:52.240Z,21.70
2022-08-26T05:59:24.071Z,21.80
2022-08-26T06:01:52.970Z,21.80
2022-08-26T06:04:21.536Z,21.80
2022-08-26T06:06:49.594Z,21.80
2022-08-26T06:09:18.289Z,21.80
2022-08-26T06:11:46.391Z,21.90
2022-08-26T06:14:17.189Z,22.00
2022-08-26T06:16:46.528Z,22.00
2022-08-26T06:19:16.151Z,22.00
2022-08-26T06:21:54.134Z,22.00
2022-08-26T06:24:40.797Z,22.00
2022-08-26T06:27:13.491Z,22.10
2022-08-26T06:29:42.978Z,22.10
2022-08-26T06:32:11.495Z,22.20
2022-08-26T06:34:39.737Z,22.30
2022-08-26T06:37:08.739Z,22.40
2022-08-26T06:39:40.207Z,22.50
2022-08-26T06:42:10.837Z,22.50
2022-08-26T06:44:40.869Z,22.60
2022-08-26T06:47:10.505Z,22.80
2022-08-26T06:49:38.643Z,22.90
2022-08-26T06:52:07.821Z,23.00
2022-08-26T06:54:37.019Z,23.10
2022-08-26T06:57:07.004Z,23.20
2022-08-26T06:59:35.219Z,23.50
2022-08-26T07:02:03.310Z,23.70
2022-08-26T07:04:34.557Z,23.90
2022-08-26T07:07:03.890Z,24.10
2022-08-26T07:09:33.162Z,24.40
2022-08-26T07:12:01.785Z,24.60
2022-08-26T07:14:31.713Z,24.70
2022-08-26T07:17:01.516Z,24.70
2022-08-26T07:19:30.820Z,24.90
2022-08-26T07:22:03.483Z,25.00
2022-08-26T07:24:32.176Z,25.30
2022-08-26T07:27:01.939Z,25.80
2022-08-26T07:29:31.422Z,27.00
2022-08-26T07:32:00.042Z,28.40
2022-08-26T07:34:28.098Z,29.70
2022-08-26T07:36:56.783Z,30.60
2022-08-26T07:39:27.124Z,31.40
2022-08-26T07:41:55.615Z,32.10
2022-08-26T07:46:53.471Z,32.60
2022-08-26T07:49:23.301Z,32.20
2022-08-26T07:51:52.193Z,31.80
2022-08-26T07:54:20.849Z,31.30
2022-08-26T07:56:56.391Z,31.30
2022-08-26T07:59:25.000Z,31.50
2022-08-26T08:01:53.759Z,31.90
2022-08-26T08:04:26.199Z,32.30
2022-08-26T08:06:55.078Z,33.00
2022-08-26T08:09:24.014Z,33.90
2022-08-26T08:11:53.176Z,34.60
2022-08-26T08:14:22.543Z,34.80
2022-08-26T08:16:51.291Z,35.10
2022-08-26T08:19:24.345Z,34.70
2022-08-26T08:22:05.212Z,35.00
2022-08-26T08:24:45.704Z,35.70
2022-08-26T08:27:22.794Z,36.20
2022-08-26T08:29:54.289Z,36.30
2022-08-26T08:32:23.909Z,36.60
2022-08-26T08:34:51.924Z,36.90
2022-08-26T08:37:19.984Z,36.50
2022-08-26T08:39:49.068Z,35.90
2022-08-26T08:42:37.690Z,35.10
2022-08-26T08:45:11.121Z,34.10
2022-08-26T08:47:42.913Z,32.80
2022-08-26T08:50:20.541Z,32.00
2022-08-26T08:52:53.408Z,31.60
2022-08-26T08:55:21.477Z,31.70
2022-08-26T08:58:02.231Z,32.00
2022-08-26T09:00:44.118Z,32.50
2022-08-26T09:03:25.129Z,32.90
2022-08-26T09:05:55.385Z,33.50
2022-08-26T09:08:28.306Z,34.30
2022-08-26T09:10:59.186Z,34.60
2022-08-26T09:13:27.645Z,34.20
2022-08-26T09:16:03.633Z,33.80
2022-08-26T09:18:45.970Z,33.60
2022-08-26T09:21:16.709Z,33.70
2022-08-26T09:23:49.640Z,33.60
2022-08-26T09:26:21.403Z,33.50
2022-08-26T09:28:57.165Z,33.10
2022-08-26T09:31:28.984Z,33.20
2022-08-26T09:34:08.340Z,33.30
2022-08-26T09:36:41.171Z,33.30
2022-08-26T09:39:31.053Z,33.40
2022-08-26T09:42:09.453Z,33.70
2022-08-26T09:44:55.780Z,33.90
2022-08-26T09:47:30.389Z,34.20
2022-08-26T09:50:09.413Z,34.70
2022-08-26T09:52:38.256Z,35.20
2022-08-26T09:55:14.456Z,35.80
2022-08-26T09:57:49.410Z,36.00
2022-08-26T10:00:32.220Z,36.50
2022-08-26T10:03:04.761Z,36.90
2022-08-26T10:05:39.636Z,37.00
2022-08-26T10:08:21.615Z,37.50
2022-08-26T10:10:52.988Z,37.60
2022-08-26T10:13:26.863Z,37.50
2022-08-26T10:16:04.725Z,37.70
2022-08-26T10:18:39.804Z,37.30
2022-08-26T10:21:12.344Z,37.60
2022-08-26T10:23:45.108Z,37.60
2022-08-26T10:26:17.348Z,37.60
2022-08-26T10:28:53.418Z,37.40
2022-08-26T10:31:28.498Z,37.10
2022-08-26T10:34:00.327Z,37.40
2022-08-26T10:37:10.588Z,37.50
2022-08-26T10:39:44.577Z,36.70
2022-08-26T10:42:20.938Z,35.70
2022-08-26T10:44:53.750Z,35.30
2022-08-26T10:47:33.757Z,35.10
2022-08-26T10:50:04.507Z,34.60
2022-08-26T10:52:46.970Z,34.20
2022-08-26T10:55:23.404Z,33.90
2022-08-26T10:58:00.336Z,33.50
2022-08-26T11:01:10.272Z,33.30
2022-08-26T11:03:44.218Z,33.10
2022-08-26T11:06:25.569Z,33.10
2022-08-26T11:08:56.768Z,33.20
2022-08-26T11:11:47.924Z,33.40
2022-08-26T11:14:41.045Z,33.40
2022-08-26T11:17:51.762Z,33.30
2022-08-26T11:20:34.235Z,33.30
2022-08-26T11:23:36.185Z,33.10
2022-08-26T11:26:37.655Z,32.80
2022-08-26T11:29:12.061Z,32.50
2022-08-26T11:31:55.921Z,32.10
2022-08-26T11:34:52.804Z,31.90
2022-08-26T11:37:27.150Z,31.70
2022-08-26T11:39:56.900Z,31.30
2022-08-26T11:42:35.939Z,31.10
2022-08-26T11:45:14.292Z,31.00
2022-08-26T11:47:42.419Z,30.80
2022-08-26T11:50:15.197Z,30.70
2022-08-26T11:52:53.172Z,30.60
2022-08-26T11:55:23.445Z,30.40
2022-08-26T11:57:56.492Z,30.10
2022-08-26T12:00:28.378Z,30.00
2022-08-26T12:03:03.011Z,30.00
2022-08-26T12:05:36.045Z,29.90
2022-08-26T12:08:10.652Z,29.80
2022-08-26T12:10:40.218Z,29.80
2022-08-26T12:13:18.696Z,29.90
2022-08-26T12:15:55.798Z,29.90
2022-08-26T12:18:29.243Z,30.00
2022-08-26T12:21:12.257Z,30.30
2022-08-26T12:23:44.807Z,30.40
2022-08-26T12:26:22.425Z,30.60
2022-08-26T12:28:55.485Z,30.90
2022-08-26T12:31:31.139Z,30.90
2022-08-26T12:34:01.138Z,31.10
2022-08-26T12:36:32.461Z,31.40
2022-08-26T12:39:08.274Z,31.50
2022-08-26T12:41:48.974Z,31.20
2022-08-26T12:44:36.515Z,31.30
2022-08-26T12:47:08.405Z,31.10
2022-08-26T12:49:38.063Z,31.40
2022-08-26T12:52:29.738Z,31.60
2022-08-26T12:54:59.815Z,31.80
2022-08-26T12:57:31.825Z,31.90
2022-08-26T13:00:29.901Z,32.00
2022-08-26T13:02:58.696Z,31.80
2022-08-26T13:05:32.918Z,31.80
2022-08-26T13:08:13.032Z,32.00
2022-08-26T13:10:44.071Z,32.30
2022-08-26T13:13:12.058Z,32.60
2022-08-26T13:15:41.416Z,32.60
2022-08-26T13:18:09.395Z,32.40
2022-08-26T13:20:44.065Z,32.60
2022-08-26T13:23:12.845Z,32.80
2022-08-26T13:25:41.124Z,33.10
2022-08-26T13:28:09.786Z,33.20
2022-08-26T13:30:37.798Z,33.40
2022-08-26T13:33:08.552Z,33.50
2022-08-26T13:35:40.227Z,33.50
2022-08-26T13:38:14.560Z,33.60
2022-08-26T13:41:02.408Z,33.50
2022-08-26T13:43:31.517Z,33.50
2022-08-26T13:46:00.601Z,33.50
2022-08-26T13:48:30.236Z,33.50
2022-08-26T13:50:58.750Z,33.40
2022-08-26T13:53:26.978Z,33.60
2022-08-26T13:55:55.026Z,33.60
2022-08-26T13:58:23.496Z,33.60
2022-08-26T14:00:53.982Z,33.50
2022-08-26T14:03:22.318Z,33.60
2022-08-26T14:05:51.683Z,33.50
2022-08-26T14:08:20.000Z,33.30
2022-08-26T14:13:21.665Z,32.60
2022-08-26T14:15:50.470Z,32.20
2022-08-26T14:18:21.326Z,31.90
2022-08-26T14:20:53.536Z,31.50
2022-08-26T14:23:22.541Z,31.20
2022-08-26T14:25:50.801Z,30.90
2022-08-26T14:28:18.837Z,30.60
2022-08-26T14:30:53.550Z,30.50
2022-08-26T14:33:25.447Z,30.40
2022-08-26T14:36:15.426Z,30.10
2022-08-26T14:38:43.419Z,29.80
2022-08-26T14:41:11.883Z,29.50
2022-08-26T14:43:44.635Z,29.40
2022-08-26T14:46:14.824Z,29.40
2022-08-26T14:48:43.230Z,29.40
2022-08-26T14:51:13.026Z,29.40
2022-08-26T14:53:59.139Z,29.30
2022-08-26T14:56:27.904Z,29.20
2022-08-26T14:58:55.900Z,29.20
2022-08-26T15:01:26.267Z,29.20
2022-08-26T15:03:56.543Z,29.10
2022-08-26T15:06:26.099Z,29.00
2022-08-26T15:08:55.277Z,28.90
2022-08-26T15:11:23.322Z,28.80
2022-08-26T15:13:51.300Z,28.80
2022-08-26T15:16:19.613Z,28.80
2022-08-26T15:18:48.497Z,28.90
2022-08-26T15:21:16.513Z,28.80
2022-08-26T15:23:47.766Z,28.80
2022-08-26T15:26:16.461Z,28.80
2022-08-26T15:28:44.717Z,28.70
2022-08-26T15:31:12.888Z,28.60
2022-08-26T15:33:41.293Z,28.60
2022-08-26T15:36:10.857Z,28.50
2022-08-26T15:38:42.310Z,28.40
2022-08-26T15:41:12.148Z,28.40
2022-08-26T15:43:40.177Z,28.40
2022-08-26T15:46:12.036Z,28.40
2022-08-26T15:48:40.499Z,28.50
2022-08-26T15:51:09.433Z,28.60
2022-08-26T15:53:37.406Z,28.70
2022-08-26T15:56:05.576Z,28.60
2022-08-26T15:58:34.865Z,28.60
2022-08-26T16:01:04.303Z,28.50
2022-08-26T16:03:32.520Z,28.60
2022-08-26T16:06:00.578Z,28.80
2022-08-26T16:08:28.542Z,29.00
2022-08-26T16:11:04.045Z,29.10
2022-08-26T16:13:39.720Z,29.20
2022-08-26T16:16:10.083Z,29.20
2022-08-26T16:18:38.257Z,29.30
2022-08-26T16:21:13.251Z,29.40
2022-08-26T16:23:44.909Z,29.40
2022-08-26T16:26:15.569Z,29.40
2022-08-26T16:28:44.302Z,29.30
2022-08-26T16:31:13.964Z,29.40
2022-08-26T16:33:42.220Z,29.40
2022-08-26T16:36:10.773Z,29.30
2022-08-26T16:38:39.970Z,29.30
2022-08-26T16:41:08.590Z,29.20
2022-08-26T16:43:36.764Z,29.10
2022-08-26T16:46:07.549Z,29.10
2022-08-26T16:48:36.959Z,29.10
2022-08-26T16:51:05.063Z,29.00
2022-08-26T16:53:33.556Z,28.90
2022-08-26T16:56:01.523Z,28.90
2022-08-26T16:58:29.504Z,28.80
2022-08-26T17:00:57.967Z,28.80
2022-08-26T17:03:25.958Z,28.60
2022-08-26T17:05:55.335Z,28.50
2022-08-26T17:08:28.508Z,28.40
2022-08-26T17:10:57.006Z,28.30
2022-08-26T17:13:35.544Z,28.30
2022-08-26T17:16:05.133Z,28.20
2022-08-26T17:18:33.669Z,28.10
2022-08-26T17:21:05.786Z,28.10
2022-08-26T17:23:33.985Z,28.00
2022-08-26T17:26:02.470Z,27.90
2022-08-26T17:28:30.530Z,27.90
2022-08-26T17:30:59.448Z,27.70
2022-08-26T17:33:28.425Z,27.60
2022-08-26T17:35:56.847Z,27.50
2022-08-26T17:38:27.679Z,27.30
2022-08-26T17:40:56.047Z,27.20
2022-08-26T17:43:24.218Z,27.10
2022-08-26T17:45:52.587Z,26.90
2022-08-26T17:48:20.621Z,26.80
2022-08-26T17:50:49.417Z,26.70
2022-08-26T17:53:19.189Z,26.60
2022-08-26T17:55:49.457Z,26.40
2022-08-26T17:58:18.775Z,26.40
2022-08-26T18:00:48.977Z,26.30
2022-08-26T18:03:17.568Z,26.20
2022-08-26T18:05:48.840Z,26.10
2022-08-26T18:08:16.833Z,26.10
2022-08-26T18:10:46.117Z,25.90
2022-08-26T18:13:15.895Z,25.90
2022-08-26T18:15:46.077Z,25.80
2022-08-26T18:18:15.069Z,25.60
2022-08-26T18:20:44.720Z,25.60
2022-08-26T18:23:13.067Z,25.50
2022-08-26T18:25:41.883Z,25.50
2022-08-26T18:28:10.542Z,25.50
2022-08-26T18:30:42.545Z,25.50
2022-08-26T18:33:11.413Z,25.40
2022-08-26T18:35:40.845Z,25.30
2022-08-26T18:38:11.813Z,25.30
2022-08-26T18:40:40.819Z,25.30
2022-08-26T18:43:08.946Z,25.20
2022-08-26T18:45:37.027Z,25.20
2022-08-26T18:48:07.007Z,25.10
2022-08-26T18:50:38.732Z,25.00
2022-08-26T18:53:07.389Z,24.90
2022-08-26T18:55:35.411Z,24.90
2022-08-26T18:58:03.438Z,24.90
2022-08-26T19:00:32.228Z,24.80
2022-08-26T19:03:00.344Z,24.80
2022-08-26T19:05:30.154Z,24.70
2022-08-26T19:07:58.135Z,24.70
2022-08-26T19:10:26.328Z,24.70
2022-08-26T19:12:56.312Z,24.70
2022-08-26T19:15:26.751Z,24.60
2022-08-26T19:17:56.303Z,24.60
2022-08-26T19:20:24.593Z,24.50
2022-08-26T19:22:53.918Z,24.50
2022-08-26T19:25:21.932Z,24.50
2022-08-26T19:27:50.025Z,24.40
2022-08-26T19:30:18.011Z,24.40
2022-08-26T19:32:46.057Z,24.30
2022-08-26T19:35:14.994Z,24.30
2022-08-26T19:37:43.044Z,24.30
2022-08-26T19:40:13.057Z,24.30
2022-08-26T19:42:41.065Z,24.20
2022-08-26T19:45:15.683Z,24.20
2022-08-26T19:47:53.968Z,24.20
2022-08-26T19:50:22.722Z,24.20
2022-08-26T19:52:50.782Z,24.20
2022-08-26T19:55:22.421Z,24.10
2022-08-26T19:57:52.283Z,24.20
2022-08-26T20:00:24.417Z,24.10
2022-08-26T20:02:53.338Z,24.10
2022-08-26T20:05:24.852Z,24.10
2022-08-26T20:07:53.552Z,24.00
2022-08-26T20:10:24.741Z,23.90
2022-08-26T20:12:53.739Z,23.80
2022-08-26T20:15:23.647Z,23.80
2022-08-26T20:17:52.293Z,23.80
2022-08-26T20:20:37.859Z,23.80
2022-08-26T20:23:05.874Z,23.80
2022-08-26T20:25:35.497Z,23.70
2022-08-26T20:28:03.834Z,23.70
2022-08-26T20:30:32.195Z,23.60
2022-08-26T20:33:00.190Z,23.60
2022-08-26T20:35:28.545Z,23.60
2022-08-26T20:37:56.520Z,23.60
2022-08-26T20:40:24.679Z,23.70
2022-08-26T20:42:54.018Z,23.60
2022-08-26T20:45:22.231Z,23.70
2022-08-26T20:47:50.528Z,23.70
2022-08-26T20:50:18.697Z,23.60
2022-08-26T20:52:47.079Z,23.60
2022-08-26T20:55:15.136Z,23.60
2022-08-26T20:57:43.251Z,23.50
2022-08-26T21:00:16.075Z,23.40
2022-08-26T21:02:46.188Z,23.40
2022-08-26T21:05:14.244Z,23.40
2022-08-26T21:07:42.289Z,23.40
2022-08-26T21:10:11.826Z,23.40
2022-08-26T21:12:40.057Z,23.40
2022-08-26T21:15:09.106Z,23.40
2022-08-26T21:17:38.484Z,23.40
2022-08-26T21:20:07.359Z,23.40
2022-08-26T21:22:35.496Z,23.30
2022-08-26T21:25:03.902Z,23.40
2022-08-26T21:27:31.952Z,23.40
2022-08-26T21:29:59.905Z,23.40
2022-08-26T21:32:27.918Z,23.40
2022-08-26T21:34:59.042Z,23.40
2022-08-26T21:37:29.012Z,23.40
2022-08-26T21:39:58.885Z,23.50
2022-08-26T21:42:27.541Z,23.50
2022-08-26T21:44:55.726Z,23.50
2022-08-26T21:47:24.648Z,23.40
2022-08-26T21:49:53.219Z,23.40
2022-08-26T21:52:22.606Z,23.30
2022-08-26T21:54:50.533Z,23.40
2022-08-26T21:57:19.249Z,23.30
2022-08-26T21:59:47.256Z,23.30
2022-08-26T22:02:15.772Z,23.20
2022-08-26T22:04:48.519Z,23.20
2022-08-26T22:07:19.005Z,23.20
2022-08-26T22:09:49.560Z,23.10
2022-08-26T22:12:18.990Z,23.10
2022-08-26T22:14:47.051Z,23.10
2022-08-26T22:17:15.217Z,23.10
2022-08-26T22:19:45.658Z,23.00
2022-08-26T22:22:14.390Z,23.00
2022-08-26T22:24:43.286Z,22.90
2022-08-26T22:27:13.042Z,22.80
2022-08-26T22:29:41.228Z,22.90
2022-08-26T22:32:09.292Z,22.90
2022-08-26T22:34:37.289Z,22.80
2022-08-26T22:37:05.565Z,22.80
2022-08-26T22:39:33.811Z,22.80
2022-08-26T22:42:02.528Z,22.70
2022-08-26T22:44:32.678Z,22.70
2022-08-26T22:47:01.573Z,22.60
2022-08-26T22:49:29.601Z,22.60
2022-08-26T22:51:58.144Z,22.60
2022-08-26T22:54:26.449Z,22.60
2022-08-26T22:56:54.430Z,22.60
2022-08-26T22:59:22.701Z,22.60
2022-08-26T23:01:51.963Z,22.60
2022-08-26T23:04:20.466Z,22.60
2022-08-26T23:06:48.586Z,22.60
2022-08-26T23:09:18.034Z,22.60
2022-08-26T23:11:46.823Z,22.60
2022-08-26T23:14:14.915Z,22.70
2022-08-26T23:16:43.138Z,22.70
2022-08-26T23:19:14.566Z,22.70
2022-08-26T23:21:43.130Z,22.60
2022-08-26T23:24:12.016Z,22.60
2022-08-26T23:26:41.677Z,22.60
2022-08-26T23:29:12.265Z,22.60
2022-08-26T23:31:42.081Z,22.60
2022-08-26T23:34:29.408Z,22.60
2022-08-26T23:37:00.193Z,22.60
2022-08-26T23:39:29.234Z,22.60
2022-08-26T23:41:58.010Z,22.60
2022-08-26T23:44:26.630Z,22.60
2022-08-26T23:46:54.991Z,22.60
2022-08-26T23:49:23.286Z,22.60
2022-08-26T23:52:09.333Z,22.50
2022-08-26T23:54:39.051Z,22.50
2022-08-26T23:57:07.509Z,22.50
2022-08-26T23:59:35.948Z,22.40
